Home   Weather   USA   Gary   Past weeks
Flag for USA

Past Weather in Gary, Indiana, USA — Yesterday and Last 2 Weeks

Currently: 69 °F. Sunny. (Weather station: Lansing Municipal Airport, USA). See more current weather

Past Weather in Gary — Graph

°F

Gary Temperature Yesterday

Maximum temperature yesterday: 83 °F (at 11:35 am)
Minimum temperature yesterday: 62 °F (at 11:15 pm)
Average temperature yesterday: 71 °F

High & Low Weather Summary for the Past Weeks

 TemperatureHumidityPressure
High90 °F (Jun 13, 1:35 pm)100% (Jun 1, 10:35 am)30.26 "Hg (Jun 1, 10:35 am)
Low44 °F (Jun 11, 4:55 am)34% (Jun 9, 3:35 pm)29.62 "Hg (Jun 5, 3:35 pm)
Average69 °F72%29.89 "Hg
* Reported May 31 7:15 am — Jun 15 7:35 am, Gary. Weather by CustomWeather, © 2024

Note: Actual official high and low records may vary slightly from our data, if they occured in-between our weather recording intervals... More about our weather records

Gary Weather History for the Previous 24 Hours

Scroll right to see more
 ConditionsComfort  
Time TempWeatherWind HumidityBarometerVisibility
7:35 am
Sat, Jun 15
67 °FSunny.8 mph80%30.13 "Hg10 mi
6:55 am64 °FSunny.6 mph88%30.12 "Hg10 mi
5:55 am55 °FSunny.No wind100%30.10 "Hg10 mi
5:35 am57 °FSunny.No wind100%30.10 "Hg10 mi
5:15 am57 °FSunny.No wind100%30.09 "Hg10 mi
4:35 am56 °FSunny.No wind100%30.09 "Hg10 mi
4:15 am57 °FSunny.No wind100%30.08 "Hg10 mi
3:15 am60 °FClear.No wind92%30.05 "Hg10 mi
2:15 am61 °FClear.No wind90%30.07 "Hg10 mi
1:55 am61 °FClear.No wind89%30.07 "Hg10 mi
1:35 am61 °FClear.No wind87%30.07 "Hg10 mi
12:55 am61 °FClear.No wind87%30.08 "Hg10 mi
12:15 am61 °FClear.No wind85%30.08 "Hg10 mi
11:35 pm
Fri, Jun 14
62 °FClear.No wind83%30.08 "Hg10 mi
11:15 pm62 °FClear.No wind83%30.08 "Hg10 mi
10:55 pm62 °FClear.5 mph83%30.08 "Hg10 mi
10:35 pm62 °FClear.3 mph82%30.08 "Hg10 mi
10:15 pm62 °FClear.5 mph83%30.08 "Hg10 mi
9:55 pm63 °FClear.5 mph83%30.07 "Hg10 mi
9:35 pm63 °FClear.3 mph83%30.07 "Hg10 mi
9:15 pm63 °FClear.9 mph79%30.06 "Hg10 mi
7:55 pm65 °FClear.13 mph76%30.05 "Hg10 mi
7:35 pm67 °FClear.13 mph74%30.05 "Hg10 mi
6:55 pm69 °FSunny.9 mph70%30.04 "Hg10 mi
6:35 pm70 °FSunny.12 mph68%30.04 "Hg10 mi
6:15 pm71 °FSunny.12 mph68%30.03 "Hg10 mi
5:55 pm71 °FSunny.13 mph68%30.03 "Hg10 mi
5:35 pm72 °FSunny.12 mph66%30.03 "Hg10 mi
5:15 pm72 °FSunny.6 mph71%30.02 "Hg10 mi
4:55 pm72 °FSunny.7 mph72%30.02 "Hg10 mi
4:35 pm73 °FSunny.10 mph73%30.01 "Hg10 mi
4:15 pm76 °FSunny.6 mph71%30.00 "Hg10 mi
3:55 pm77 °FSunny.10 mph62%30.00 "Hg10 mi
3:35 pm78 °FSunny.8 mph56%29.99 "Hg10 mi
2:55 pm81 °FSunny.8 mph44%29.99 "Hg10 mi
2:35 pm81 °FSunny.8 mph45%29.99 "Hg10 mi
2:15 pm80 °FSunny.10 mph46%29.99 "Hg10 mi
1:55 pm81 °FSunny.13 mph46%29.99 "Hg10 mi
1:35 pm82 °FSunny.12 mph43%29.99 "Hg10 mi
12:55 pm80 °FSunny.8 mph47%29.99 "Hg10 mi
11:50 am83 °FSunny.8 mph37%29.98 "Hg10 mi
11:35 am83 °FSunny.6 mph39%29.98 "Hg10 mi
11:15 am82 °FSunny.7 mph41%29.98 "Hg10 mi
10:55 am82 °FSunny.6 mph42%29.98 "Hg10 mi
10:15 am81 °FSunny.7 mph47%29.98 "Hg10 mi
9:55 am80 °FSunny.3 mph47%29.98 "Hg10 mi
Weather by CustomWeather, © 2024

See weather overview